< < Back
Terminal Aerodrome Forecast


Current Version              Previous Versions:   1  2  3  4  5  6  7  8  9  

Terminal Aerodrome Forecast

656
FTUS42 KFFC 121742
TAFCSG
TAF
KCSG 121742Z 1218/1318 29005KT P6SM FEW150
     FM130100 32012KT P6SM SKC
     FM131700 35011KT P6SM SKC=

Latest METAR

583
SAUS70 KWBC 122200
MTRCSG
METAR KCSG 122151Z 28012G18KT 10SM FEW070 19/04 A3006 RMK AO2 SLP178
T01940044


USA.gov is the U.S. government's official web portal to all federal, state and local government web resources and services.